createdAt,value
2023-05-14T00:01:11.453Z,22.76
2023-05-14T00:04:15.622Z,22.76
2023-05-14T00:07:18.466Z,22.76
2023-05-14T00:10:22.163Z,22.78
2023-05-14T00:13:25.131Z,22.69
2023-05-14T00:16:27.976Z,22.73
2023-05-14T00:19:32.173Z,22.71
2023-05-14T00:22:34.962Z,22.74
2023-05-14T00:25:37.711Z,22.71
2023-05-14T00:28:40.528Z,22.72
2023-05-14T00:31:43.401Z,22.73
2023-05-14T00:34:47.681Z,22.70
2023-05-14T00:37:50.412Z,22.71
2023-05-14T00:40:53.204Z,22.72
2023-05-14T00:43:55.997Z,22.78
2023-05-14T00:47:00.297Z,22.73
2023-05-14T00:50:05.315Z,22.72
2023-05-14T00:53:10.436Z,22.68
2023-05-14T00:56:13.315Z,22.68
2023-05-14T00:59:16.097Z,22.66
2023-05-14T01:02:18.893Z,22.62
2023-05-14T01:05:24.650Z,22.60
2023-05-14T01:08:32.836Z,22.64
2023-05-14T01:11:41.250Z,22.61
2023-05-14T01:14:47.600Z,22.63
2023-05-14T01:17:54.839Z,22.63
2023-05-14T01:20:59.079Z,22.66
2023-05-14T01:24:03.153Z,22.67
2023-05-14T01:27:08.519Z,22.63
2023-05-14T01:30:15.270Z,22.65
2023-05-14T01:33:19.224Z,22.65
2023-05-14T01:36:22.296Z,22.66
2023-05-14T01:39:27.872Z,22.65
2023-05-14T01:42:30.875Z,22.69
2023-05-14T01:45:35.960Z,22.68
2023-05-14T01:48:38.901Z,22.70
2023-05-14T01:51:41.850Z,22.64
2023-05-14T01:54:46.001Z,22.63
2023-05-14T01:57:48.726Z,22.67
2023-05-14T02:00:51.522Z,22.65
2023-05-14T02:03:54.403Z,22.66
2023-05-14T02:06:57.225Z,22.65
2023-05-14T02:10:01.396Z,22.66
2023-05-14T02:13:04.259Z,22.63
2023-05-14T02:16:07.447Z,22.67
2023-05-14T02:19:10.334Z,22.66
2023-05-14T02:22:13.189Z,22.70
2023-05-14T02:25:17.385Z,22.79
2023-05-14T02:28:20.182Z,21.86
2023-05-14T02:31:23.003Z,22.59
2023-05-14T02:34:26.518Z,22.61
2023-05-14T02:37:29.285Z,22.66
2023-05-14T02:40:33.492Z,22.69
2023-05-14T02:43:36.263Z,22.70
2023-05-14T02:46:39.107Z,22.63
2023-05-14T02:49:41.927Z,22.62
2023-05-14T02:52:44.846Z,22.68
2023-05-14T02:55:48.986Z,22.65
2023-05-14T02:58:51.776Z,22.67
2023-05-14T03:01:54.590Z,22.66
2023-05-14T03:04:57.862Z,22.73
2023-05-14T03:08:01.098Z,22.70
2023-05-14T03:11:05.319Z,22.68
2023-05-14T03:14:08.050Z,22.76
2023-05-14T03:17:10.915Z,22.79
2023-05-14T03:20:14.165Z,22.80
2023-05-14T03:23:17.996Z,22.84
2023-05-14T03:26:22.130Z,22.83
2023-05-14T03:29:24.961Z,22.85
2023-05-14T03:32:27.847Z,22.87
2023-05-14T03:35:30.623Z,22.85
2023-05-14T03:38:33.445Z,22.90
2023-05-14T03:41:37.815Z,22.90
2023-05-14T03:44:40.803Z,22.91
2023-05-14T03:47:43.627Z,22.89
2023-05-14T03:50:46.422Z,22.92
2023-05-14T03:53:49.221Z,22.95
2023-05-14T03:56:53.376Z,22.96
2023-05-14T03:59:56.126Z,23.00
2023-05-14T04:02:58.976Z,23.03
2023-05-14T04:06:02.752Z,23.03
2023-05-14T04:09:05.459Z,23.07
2023-05-14T04:12:10.109Z,23.06
2023-05-14T04:15:13.115Z,23.07
2023-05-14T04:18:16.057Z,23.06
2023-05-14T04:21:18.943Z,23.03
2023-05-14T04:24:21.689Z,23.09
2023-05-14T04:27:25.906Z,23.14
2023-05-14T04:30:28.658Z,23.12
2023-05-14T04:33:31.472Z,23.08
2023-05-14T04:36:34.278Z,23.10
2023-05-14T04:39:38.009Z,23.12
2023-05-14T04:42:42.240Z,23.20
2023-05-14T04:45:45.031Z,23.23
2023-05-14T04:48:48.430Z,23.28
2023-05-14T04:51:51.262Z,23.27
2023-05-14T04:54:54.193Z,23.33
2023-05-14T04:57:58.269Z,23.34
2023-05-14T05:01:01.762Z,23.35
2023-05-14T05:04:04.630Z,23.37
2023-05-14T05:07:07.424Z,23.37
2023-05-14T05:10:10.609Z,23.41
2023-05-14T05:13:17.037Z,23.43
2023-05-14T05:16:19.863Z,23.38
2023-05-14T05:19:32.166Z,23.42
2023-05-14T05:22:42.762Z,23.50
2023-05-14T05:25:45.598Z,23.51
2023-05-14T05:28:49.766Z,23.50
2023-05-14T05:31:52.618Z,23.53
2023-05-14T05:34:55.522Z,23.55
2023-05-14T05:38:01.125Z,23.62
2023-05-14T05:41:04.483Z,23.59
2023-05-14T05:44:08.731Z,23.61
2023-05-14T05:47:11.510Z,23.62
2023-05-14T05:50:15.114Z,23.67
2023-05-14T05:53:17.937Z,23.66
2023-05-14T05:56:21.227Z,23.70
2023-05-14T05:59:25.465Z,23.71
2023-05-14T06:02:28.287Z,23.70
2023-05-14T06:05:31.243Z,23.83
2023-05-14T06:08:34.055Z,23.71
2023-05-14T06:11:36.810Z,23.75
2023-05-14T06:14:40.968Z,23.82
2023-05-14T06:17:43.731Z,23.81
2023-05-14T06:20:46.549Z,23.83
2023-05-14T06:23:49.297Z,23.88
2023-05-14T06:26:52.038Z,23.90
2023-05-14T06:29:56.345Z,23.90
2023-05-14T06:32:59.143Z,23.97
2023-05-14T06:36:02.292Z,23.96
2023-05-14T06:39:05.089Z,23.91
2023-05-14T06:42:07.992Z,23.99
2023-05-14T06:45:12.696Z,23.95
2023-05-14T06:48:15.614Z,23.96
2023-05-14T06:51:18.525Z,24.02
2023-05-14T06:54:21.580Z,23.97
2023-05-14T06:57:24.378Z,23.99
2023-05-14T07:00:28.883Z,24.03
2023-05-14T07:03:31.672Z,24.02
2023-05-14T07:06:34.488Z,24.11
2023-05-14T07:09:37.273Z,24.17
2023-05-14T07:12:40.014Z,24.16
2023-05-14T07:15:44.199Z,24.13
2023-05-14T07:18:46.926Z,24.13
2023-05-14T07:21:49.731Z,24.10
2023-05-14T07:24:52.470Z,24.14
2023-05-14T07:27:55.921Z,24.11
2023-05-14T07:31:00.275Z,24.14
2023-05-14T07:34:03.130Z,24.16
2023-05-14T07:37:06.152Z,24.14
2023-05-14T07:40:09.528Z,24.15
2023-05-14T07:43:12.340Z,24.18
2023-05-14T07:46:17.765Z,24.21
2023-05-14T07:49:20.536Z,24.19
2023-05-14T07:52:23.353Z,24.22
2023-05-14T07:55:26.141Z,24.17
2023-05-14T07:58:29.037Z,24.16
2023-05-14T08:01:33.280Z,24.16
2023-05-14T08:04:36.258Z,24.14
2023-05-14T08:07:39.256Z,24.20
2023-05-14T08:10:42.103Z,24.42
2023-05-14T08:13:45.032Z,24.33
2023-05-14T08:16:49.234Z,24.22
2023-05-14T08:19:51.999Z,24.19
2023-05-14T08:22:57.549Z,24.22
2023-05-14T08:26:00.453Z,24.30
2023-05-14T08:29:03.357Z,24.21
2023-05-14T08:32:19.283Z,24.32
2023-05-14T08:35:25.982Z,24.27
2023-05-14T08:38:28.829Z,24.30
2023-05-14T08:41:31.752Z,24.35
2023-05-14T08:44:37.862Z,24.29
2023-05-14T08:47:42.116Z,24.26
2023-05-14T08:50:45.294Z,24.28
2023-05-14T08:53:49.320Z,24.30
2023-05-14T08:56:52.785Z,24.31
2023-05-14T08:59:56.054Z,24.30
2023-05-14T09:03:01.055Z,24.36
2023-05-14T09:06:04.285Z,24.22
2023-05-14T09:09:07.222Z,24.25
2023-05-14T09:12:11.184Z,24.45
2023-05-14T09:15:14.245Z,24.38
2023-05-14T09:18:18.615Z,24.35
2023-05-14T09:21:22.730Z,24.23
2023-05-14T09:24:27.140Z,24.23
2023-05-14T09:27:30.922Z,24.11
2023-05-14T09:30:35.042Z,24.26
2023-05-14T09:33:39.245Z,24.36
2023-05-14T09:36:42.061Z,24.32
2023-05-14T09:39:44.932Z,24.31
2023-05-14T09:42:48.395Z,24.31
2023-05-14T09:45:51.431Z,24.36
2023-05-14T09:48:56.792Z,24.34
2023-05-14T09:51:59.629Z,24.32
2023-05-14T09:55:02.646Z,24.33
2023-05-14T09:58:06.090Z,24.36
2023-05-14T10:01:09.372Z,24.35
2023-05-14T10:04:13.918Z,24.37
2023-05-14T10:07:18.656Z,24.36
2023-05-14T10:10:22.547Z,24.38
2023-05-14T10:13:29.961Z,24.39
2023-05-14T10:16:35.109Z,24.38
2023-05-14T10:19:41.153Z,24.41
2023-05-14T10:22:44.006Z,24.44
2023-05-14T10:25:47.053Z,24.45
2023-05-14T10:28:50.053Z,24.49
2023-05-14T10:31:54.853Z,24.52
2023-05-14T10:34:59.680Z,24.54
2023-05-14T10:38:02.468Z,24.53
2023-05-14T10:41:06.111Z,24.57
2023-05-14T10:44:10.046Z,24.62
2023-05-14T10:47:13.000Z,24.58
2023-05-14T10:50:17.787Z,24.57
2023-05-14T10:53:21.237Z,24.57
2023-05-14T10:56:24.051Z,24.58
2023-05-14T10:59:28.351Z,24.58
2023-05-14T11:02:32.258Z,24.59
2023-05-14T11:05:37.655Z,24.61
2023-05-14T11:08:41.099Z,24.81
2023-05-14T11:11:44.019Z,24.76
2023-05-14T11:14:47.952Z,24.81
2023-05-14T11:17:52.361Z,24.68
2023-05-14T11:20:59.074Z,24.72
2023-05-14T11:24:01.858Z,24.72
2023-05-14T11:27:05.827Z,24.69
2023-05-14T11:30:13.540Z,24.70
2023-05-14T11:33:17.059Z,24.72
2023-05-14T11:36:21.565Z,24.73
2023-05-14T11:39:24.392Z,24.78
2023-05-14T11:42:27.254Z,24.74
2023-05-14T11:45:30.431Z,24.76
2023-05-14T11:48:33.299Z,24.96
2023-05-14T11:51:37.426Z,24.87
2023-05-14T11:54:40.360Z,24.88
2023-05-14T11:57:43.305Z,24.90
2023-05-14T12:00:46.083Z,25.03
2023-05-14T12:03:49.012Z,25.07
2023-05-14T12:06:53.844Z,24.96
2023-05-14T12:10:01.523Z,24.99
2023-05-14T12:13:08.070Z,25.01
2023-05-14T12:16:11.050Z,25.05
2023-05-14T12:19:15.774Z,25.02
2023-05-14T12:22:21.139Z,25.02
2023-05-14T12:25:26.734Z,25.03
2023-05-14T12:28:29.720Z,25.06
2023-05-14T12:31:32.952Z,25.11
2023-05-14T12:34:37.385Z,25.10
2023-05-14T12:41:15.799Z,25.16
2023-05-14T12:44:18.906Z,25.19
2023-05-14T12:47:21.824Z,25.12
2023-05-14T12:50:24.962Z,25.11
2023-05-14T12:53:28.056Z,25.13
2023-05-14T12:56:32.237Z,25.16
2023-05-14T12:59:35.020Z,25.10
2023-05-14T13:02:43.054Z,25.07
2023-05-14T13:05:46.548Z,25.04
2023-05-14T13:08:49.327Z,25.08
2023-05-14T13:11:53.474Z,25.12
2023-05-14T13:14:56.238Z,25.17
2023-05-14T13:17:59.070Z,25.20
2023-05-14T13:21:04.339Z,25.19
2023-05-14T13:24:07.373Z,25.22
2023-05-14T13:27:11.506Z,25.23
2023-05-14T13:30:14.494Z,25.27
2023-05-14T13:33:20.121Z,25.26
2023-05-14T13:36:22.939Z,25.27
2023-05-14T13:39:27.337Z,25.29
2023-05-14T13:42:31.638Z,25.30
2023-05-14T13:45:34.444Z,25.31
2023-05-14T13:48:37.499Z,25.29
2023-05-14T13:51:40.309Z,25.29
2023-05-14T13:54:43.122Z,25.31
2023-05-14T13:57:47.325Z,25.32
2023-05-14T14:00:50.176Z,25.36
2023-05-14T14:03:53.025Z,25.40
2023-05-14T14:06:55.984Z,25.40
2023-05-14T14:10:01.501Z,25.41
2023-05-14T14:13:05.580Z,25.45
2023-05-14T14:16:08.461Z,25.42
2023-05-14T14:19:11.363Z,25.43
2023-05-14T14:22:17.317Z,25.46
2023-05-14T14:25:20.063Z,25.48
2023-05-14T14:28:24.264Z,25.46
2023-05-14T14:31:27.008Z,25.46
2023-05-14T14:34:29.854Z,25.51
2023-05-14T14:37:32.639Z,25.49
2023-05-14T14:40:35.683Z,25.51
2023-05-14T14:43:40.362Z,25.48
2023-05-14T14:46:43.958Z,25.44
2023-05-14T14:49:46.691Z,25.48
2023-05-14T14:52:49.483Z,25.48
2023-05-14T14:55:52.570Z,25.50
2023-05-14T14:58:56.701Z,25.49
2023-05-14T15:01:59.625Z,25.51
2023-05-14T15:05:02.388Z,25.53
2023-05-14T15:08:05.530Z,25.53
2023-05-14T15:11:08.714Z,25.54
2023-05-14T15:14:13.257Z,25.51
2023-05-14T15:17:16.118Z,25.52
2023-05-14T15:20:19.123Z,25.52
2023-05-14T15:23:21.828Z,25.53
2023-05-14T15:26:24.672Z,25.55
2023-05-14T15:29:28.800Z,25.52
2023-05-14T15:32:31.784Z,25.52
2023-05-14T15:35:34.558Z,25.54
2023-05-14T15:38:37.260Z,25.53
2023-05-14T15:41:40.063Z,25.55
2023-05-14T15:44:44.144Z,25.53
2023-05-14T15:47:46.983Z,25.56
2023-05-14T15:50:50.111Z,25.58
2023-05-14T15:53:53.826Z,25.66
2023-05-14T15:56:56.798Z,25.68
2023-05-14T16:00:00.976Z,25.64
2023-05-14T16:03:03.804Z,25.65
2023-05-14T16:06:06.931Z,25.66
2023-05-14T16:09:09.702Z,25.67
2023-05-14T16:12:12.558Z,25.69
2023-05-14T16:15:16.827Z,25.63
2023-05-14T16:18:20.654Z,25.59
2023-05-14T16:21:23.413Z,25.69
2023-05-14T16:24:27.777Z,25.74
2023-05-14T16:27:30.531Z,25.72
2023-05-14T16:30:34.750Z,25.68
2023-05-14T16:33:38.446Z,25.74
2023-05-14T16:36:41.271Z,25.57
2023-05-14T16:39:44.212Z,25.52
2023-05-14T16:42:49.158Z,24.42
2023-05-14T16:45:53.728Z,24.25
2023-05-14T16:48:56.826Z,24.23
2023-05-14T16:51:59.609Z,24.12
2023-05-14T16:55:02.347Z,23.97
2023-05-14T16:58:05.162Z,23.76
2023-05-14T17:01:10.074Z,23.85
2023-05-14T17:04:13.144Z,23.70
2023-05-14T17:07:15.936Z,23.76
2023-05-14T17:10:18.862Z,23.81
2023-05-14T17:13:21.626Z,22.97
2023-05-14T17:16:26.168Z,23.08
2023-05-14T17:19:29.078Z,23.13
2023-05-14T17:22:31.869Z,22.94
2023-05-14T17:25:34.677Z,22.73
2023-05-14T17:28:37.473Z,22.82
2023-05-14T17:31:41.578Z,22.71
2023-05-14T17:34:44.342Z,22.56
2023-05-14T17:37:47.171Z,22.48
2023-05-14T17:40:50.060Z,22.55
2023-05-14T17:43:53.181Z,22.64
2023-05-14T17:46:57.494Z,22.38
2023-05-14T17:50:00.340Z,22.52
2023-05-14T17:53:03.104Z,22.43
2023-05-14T17:56:06.390Z,22.27
2023-05-14T17:59:09.211Z,22.22
2023-05-14T18:02:15.889Z,22.07
2023-05-14T18:05:20.746Z,22.16
2023-05-14T18:08:25.642Z,22.00
2023-05-14T18:11:36.304Z,22.15
2023-05-14T18:14:39.114Z,21.94
2023-05-14T18:17:43.335Z,21.70
2023-05-14T18:20:46.113Z,21.84
2023-05-14T18:23:48.946Z,22.00
2023-05-14T18:26:51.758Z,21.82
2023-05-14T18:29:54.711Z,21.70
2023-05-14T18:32:59.763Z,21.80
2023-05-14T18:36:03.582Z,21.78
2023-05-14T18:39:06.303Z,21.85
2023-05-14T18:42:10.053Z,21.49
2023-05-14T18:45:13.969Z,21.37
2023-05-14T18:48:18.132Z,21.62
2023-05-14T18:51:20.963Z,21.44
2023-05-14T18:54:23.762Z,21.64
2023-05-14T18:57:29.179Z,21.74
2023-05-14T19:00:31.985Z,21.67
2023-05-14T19:03:36.179Z,21.61
2023-05-14T19:06:40.345Z,21.45
2023-05-14T19:09:43.086Z,21.50
2023-05-14T19:12:47.258Z,21.43
2023-05-14T19:15:50.038Z,21.36
2023-05-14T19:18:54.576Z,21.20
2023-05-14T19:21:57.443Z,21.30
2023-05-14T19:25:00.286Z,21.30
2023-05-14T19:28:03.763Z,21.32
2023-05-14T19:31:06.604Z,21.29
2023-05-14T19:34:11.293Z,21.21
2023-05-14T19:37:14.167Z,21.22
2023-05-14T19:40:17.013Z,20.84
2023-05-14T19:43:20.033Z,20.80
2023-05-14T19:46:22.827Z,21.16
2023-05-14T19:49:26.934Z,21.31
2023-05-14T19:52:29.704Z,21.01
2023-05-14T19:55:32.469Z,20.52
2023-05-14T19:58:35.288Z,20.60
2023-05-14T20:01:39.095Z,20.80
2023-05-14T20:04:43.334Z,20.93
2023-05-14T20:07:49.012Z,20.43
2023-05-14T20:10:51.839Z,20.57
2023-05-14T20:13:54.628Z,20.56
2023-05-14T20:16:58.051Z,20.54
2023-05-14T20:20:02.560Z,20.60
2023-05-14T20:23:05.360Z,20.36
2023-05-14T20:26:08.160Z,20.61
2023-05-14T20:29:14.376Z,20.67
2023-05-14T20:32:17.183Z,20.73
2023-05-14T20:35:21.371Z,20.71
2023-05-14T20:38:25.751Z,20.48
2023-05-14T20:41:28.550Z,20.51
2023-05-14T20:44:31.406Z,20.71
2023-05-14T20:47:35.775Z,20.80
2023-05-14T20:50:40.008Z,20.94
2023-05-14T20:53:42.881Z,20.65
2023-05-14T20:56:45.720Z,20.93
2023-05-14T20:59:49.084Z,20.77
2023-05-14T21:02:52.102Z,20.76
2023-05-14T21:05:57.093Z,20.85
2023-05-14T21:08:59.850Z,20.97
2023-05-14T21:12:02.627Z,21.25
2023-05-14T21:15:05.832Z,21.57
2023-05-14T21:18:08.675Z,22.72
2023-05-14T21:21:12.900Z,22.96
2023-05-14T21:24:16.839Z,23.09
2023-05-14T21:27:19.661Z,23.16
2023-05-14T21:30:22.807Z,23.24
2023-05-14T21:33:25.734Z,23.24
2023-05-14T21:36:30.110Z,23.29
2023-05-14T21:39:33.156Z,23.28
2023-05-14T21:42:36.025Z,23.31
2023-05-14T21:45:38.831Z,23.38
2023-05-14T21:48:41.653Z,23.37
2023-05-14T21:51:45.880Z,23.39
2023-05-14T21:54:48.730Z,23.52
2023-05-14T21:57:51.498Z,23.56
2023-05-14T22:00:54.321Z,23.52
2023-05-14T22:03:58.049Z,23.56
2023-05-14T22:07:02.782Z,23.67
2023-05-14T22:10:05.840Z,23.53
2023-05-14T22:13:08.612Z,23.48
2023-05-14T22:16:13.761Z,23.45
2023-05-14T22:19:17.587Z,23.43
2023-05-14T22:22:21.869Z,23.46
2023-05-14T22:25:24.963Z,23.43
2023-05-14T22:28:27.962Z,23.43
2023-05-14T22:31:30.798Z,23.43
2023-05-14T22:34:33.522Z,23.47
2023-05-14T22:37:37.730Z,23.46
2023-05-14T22:40:40.566Z,23.45
2023-05-14T22:43:43.353Z,23.48
2023-05-14T22:46:46.148Z,23.49
2023-05-14T22:49:49.017Z,23.55
2023-05-14T22:52:53.168Z,23.54
2023-05-14T22:55:55.924Z,23.51
2023-05-14T22:59:00.355Z,23.53
2023-05-14T23:02:03.252Z,23.55
2023-05-14T23:05:06.409Z,23.53
2023-05-14T23:08:10.600Z,23.56
2023-05-14T23:11:13.347Z,23.55
2023-05-14T23:14:17.919Z,23.60
2023-05-14T23:17:20.784Z,23.62
2023-05-14T23:20:23.547Z,23.61
2023-05-14T23:23:27.759Z,23.61
2023-05-14T23:26:30.524Z,23.62
2023-05-14T23:29:33.337Z,23.57
2023-05-14T23:32:36.151Z,23.60
2023-05-14T23:35:39.327Z,23.58
2023-05-14T23:38:44.583Z,23.59
2023-05-14T23:41:48.395Z,23.29
2023-05-14T23:44:51.193Z,21.42
2023-05-14T23:47:54.592Z,20.79
2023-05-14T23:50:57.358Z,20.52
2023-05-14T23:54:01.496Z,20.44
2023-05-14T23:57:04.360Z,20.48
